Eagle San Antonio — 9V9330 — position and weather

sailwx.info

Track history (hours):
 
Tides and Currents Weather Stations Pressure Air Temp Water Temp Dewpoint Dewpoint Depression Visibility Wind Speed Wind Dir Waves Ship Positions

Eagle San Antonio

Last reported at 2017-Jul-11 13:08 UTC. Time now 2017-Jul-21 06:24 UTC.
Position N 27°45' W 016°31'.
Warning: this ship's position is 9 days out of date.

Length 274 m; draft 9.2 m.

Type: Tanker. MMSI: 566453000.

Date/timePositionNaut miles runAvg speedWind from/ knotsBaromVisibWave heightAir tempDewpointWater temp
2017-Jul-11 13:08N 27°45' W 016°31'213.4
2017-Jul-11 13:00N 27°46' W 016°30'3613.5
2017-Jul-11 10:21N 28°16' W 016°06'514.3
2017-Jul-11 10:00N 28°19' W 016°02'815.1
2017-Jul-11 09:30N 28°25' W 015°57'816.6
2017-Jul-11 09:00N 28°31' W 015°51'815.5
2017-Jul-11 08:30N 28°37' W 015°45'714.3
2017-Jul-11 08:00N 28°43' W 015°40'613.1
2017-Jul-11 07:30N 28°48' W 015°35'612.8
2017-Jul-11 07:00N 28°54' W 015°33'913.2
2017-Jul-11 06:17N 29°03' W 015°29'413.6
2017-Jul-11 06:00N 29°07' W 015°28'713.5
2017-Jul-11 05:30N 29°13' W 015°26'713.3
2017-Jul-11 05:00N 29°20' W 015°24'612.9
2017-Jul-11 04:30N 29°26' W 015°23'712.9
2017-Jul-11 03:59N 29°32' W 015°21'612.9
2017-Jul-11 03:30N 29°38' W 015°19'713.0
2017-Jul-11 03:00N 29°45' W 015°17'612.9
2017-Jul-11 02:30N 29°51' W 015°15'712.8
2017-Jul-11 02:00N 29°57' W 015°13'712.9
2017-Jul-11 01:28N 30°04' W 015°11'613.2
2017-Jul-11 01:00N 30°10' W 015°09'713.2
2017-Jul-11 00:30N 30°16' W 015°07'713.2
2017-Jul-10 23:57N 30°23' W 015°05'1213.2
2017-Jul-10 23:04N 30°34' W 015°01'  
2017-Jul-07 20:35N 46°23' W 008°06'414.4
2017-Jul-07 20:17N 46°26' W 008°03'514.1
2017-Jul-07 19:57N 46°30' W 007°59'7114.1
2017-Jul-07 14:53N 47°31' W 007°04'4713.0
2017-Jul-07 11:18N 48°11' W 006°28'413.5
2017-Jul-07 11:00N 48°14' W 006°25'713.8
2017-Jul-07 10:28N 48°21' W 006°20'613.9
2017-Jul-07 10:00N 48°26' W 006°16'815.5
2017-Jul-07 09:30N 48°33' W 006°09'814.9
2017-Jul-07 08:59N 48°39' W 006°02'715.2
2017-Jul-07 08:30N 48°45' W 005°56'815.2
2017-Jul-07 08:00N 48°52' W 005°50'714.6
2017-Jul-07 07:30N 48°57' W 005°42'714.5
2017-Jul-07 07:00N 48°59' W 005°31'714.4
2017-Jul-07 06:30N 49°02' W 005°21'714.2
2017-Jul-07 06:00N 49°04' W 005°11'713.8
2017-Jul-07 05:30N 49°07' W 005°01'713.4
2017-Jul-07 05:00N 49°09' W 004°52'713.2
2017-Jul-07 04:30N 49°12' W 004°42'713.2
2017-Jul-07 04:00N 49°14' W 004°33'612.8
2017-Jul-07 03:30N 49°18' W 004°25'713.2
2017-Jul-07 03:00N 49°22' W 004°17'713.3
2017-Jul-07 02:30N 49°27' W 004°10'713.7
2017-Jul-07 02:00N 49°31' W 004°02'714.1
2017-Jul-07 01:30N 49°36' W 003°54'714.6
2017-Jul-07 01:00N 49°41' W 003°46'714.9
2017-Jul-07 00:30N 49°46' W 003°38'815.3
2017-Jul-07 00:00N 49°52' W 003°29'714.8
2017-Jul-06 23:30N 49°54' W 003°18'415.1
2017-Jul-06 23:16N 49°55' W 003°13'301 7.8
2017-Jul-05 08:30N 51°58' E 004°04'0 0.0
2017-Jul-05 08:00N 51°58' E 004°04'0 0.0
2017-Jul-05 07:30N 51°58' E 004°04'0 0.0
2017-Jul-05 07:01N 51°58' E 004°04'0 0.0
2017-Jul-05 06:30N 51°58' E 004°04'0 0.0
2017-Jul-05 05:58N 51°58' E 004°04'0 0.0
2017-Jul-05 05:30N 51°58' E 004°04'0 0.0
2017-Jul-05 05:00N 51°58' E 004°04'0 0.0
2017-Jul-05 04:30N 51°58' E 004°04'0 0.0
2017-Jul-05 04:00N 51°58' E 004°04'0 0.0
2017-Jul-05 03:30N 51°58' E 004°04'0 0.0
2017-Jul-05 02:58N 51°58' E 004°04'0 0.0
2017-Jul-05 02:30N 51°58' E 004°04'0 0.0
2017-Jul-05 02:01N 51°58' E 004°04'0 0.0
2017-Jul-05 01:31N 51°58' E 004°04'0 0.0
2017-Jul-05 01:01N 51°58' E 004°04'0 0.0
2017-Jul-05 00:29N 51°58' E 004°04'0 0.0
2017-Jul-04 23:59N 51°58' E 004°04'0 0.0
2017-Jul-04 23:29N 51°58' E 004°04'0 0.0
2017-Jul-04 23:00N 51°58' E 004°04'0 0.0
2017-Jul-04 22:30N 51°58' E 004°04'0 0.0
2017-Jul-04 22:00N 51°58' E 004°04'0 0.0
2017-Jul-04 21:30N 51°58' E 004°04'0 0.0
2017-Jul-04 21:00N 51°58' E 004°04'0 0.0
2017-Jul-04 20:30N 51°58' E 004°04'0 0.0
2017-Jul-04 20:00N 51°58' E 004°04'0 0.0
2017-Jul-04 19:30N 51°58' E 004°04'0 0.0
2017-Jul-04 19:00N 51°58' E 004°04'0 0.0
2017-Jul-04 18:30N 51°58' E 004°04'0 0.0
2017-Jul-04 18:00N 51°58' E 004°04'0 0.0
2017-Jul-04 17:30N 51°58' E 004°04'0 0.0
2017-Jul-04 17:00N 51°58' E 004°04'0 0.0
2017-Jul-04 16:30N 51°58' E 004°04'0 0.0
2017-Jul-04 16:00N 51°58' E 004°04'0 0.3
2017-Jul-04 15:30N 51°58' E 004°04'1 1.9
2017-Jul-04 15:00N 51°59' E 004°04'1110.8
2017-Jul-04 14:00N 52°01' E 003°47'510.2
2017-Jul-04 13:30N 52°01' E 003°39'612.2
2017-Jul-04 13:00N 51°59' E 003°29'714.8
2017-Jul-04 12:30N 51°56' E 003°18'5 6.8
2017-Jul-04 11:45N 51°54' E 003°11'411.8
2017-Jul-04 11:26N 51°53' E 003°05'511.6
2017-Jul-04 10:59N 51°52' E 002°56'611.8
2017-Jul-04 10:26N 51°50' E 002°47'511.7
2017-Jul-04 09:59N 51°47' E 002°39'612.1
2017-Jul-04 09:30N 51°43' E 002°33'612.1
2017-Jul-04 09:00N 51°38' E 002°27'612.6
2017-Jul-04 08:30N 51°33' E 002°20'612.6
2017-Jul-04 08:00N 51°28' E 002°14'612.0
2017-Jul-04 07:30N 51°23' E 002°11'612.3
2017-Jul-04 07:00N 51°17' E 002°07'612.0
2017-Jul-04 06:30N 51°13' E 002°00'612.3
2017-Jul-04 06:00N 51°10' E 001°52'1212.0
2017-Jul-04 05:00N 51°02' E 001°37'611.8
2017-Jul-04 04:30N 50°58' E 001°30'611.3
2017-Jul-04 04:00N 50°53' E 001°25'611.7
2017-Jul-04 03:30N 50°48' E 001°23'611.7
2017-Jul-04 03:00N 50°42' E 001°21'711.7
2017-Jul-04 02:25N 50°37' E 001°13'2811.6
2017-Jul-03 23:59N 50°25' E 000°33'911.9
2017-Jul-03 23:14N 50°22' E 000°19'711.7
2017-Jul-03 22:39N 50°21' E 000°09'211.8
2017-Jul-03 22:30N 50°20' E 000°07'611.7
2017-Jul-03 22:00N 50°19' W 000°03'611.8
2017-Jul-03 21:30N 50°17' W 000°11'611.8
2017-Jul-03 21:00N 50°16' W 000°20'611.6
2017-Jul-03 20:30N 50°15' W 000°29'611.4
2017-Jul-03 20:00N 50°13' W 000°38'1111.2
2017-Jul-03 19:03N 50°12' W 000°54'110.9
2017-Jul-03 19:00N 50°12' W 000°55'611.4
2017-Jul-03 18:30N 50°12' W 001°04'612.0
2017-Jul-03 18:01N 50°11' W 001°13'612.7
2017-Jul-03 17:31N 50°11' W 001°23'612.9
2017-Jul-03 17:00N 50°12' W 001°33'713.3
2017-Jul-03 16:30N 50°13' W 001°44'714.2
2017-Jul-03 16:00N 50°15' W 001°54'2814.1
2017-Jul-03 14:00N 50°20' W 002°38'713.2
2017-Jul-03 13:30N 50°21' W 002°48'612.9
2017-Jul-03 13:00N 50°22' W 002°58'713.0
2017-Jul-03 12:30N 50°23' W 003°08'612.9
2017-Jul-03 12:00N 50°24' W 003°18'4 8.9
2017-Jul-03 11:30N 50°25' W 003°25'3 5.4
2017-Jul-03 11:00N 50°23' W 003°23'510.4
2017-Jul-03 10:30N 50°18' W 003°20'612.4
2017-Jul-03 10:00N 50°11' W 003°20'612.3
2017-Jul-03 09:30N 50°05' W 003°20'611.8
2017-Jul-03 09:00N 49°59' W 003°21'612.3
2017-Jul-03 08:30N 49°55' W 003°28'612.8
2017-Jul-03 08:00N 49°51' W 003°35'612.4
2017-Jul-03 07:30N 49°46' W 003°42'612.3
2017-Jul-03 07:00N 49°42' W 003°49'612.2
2017-Jul-03 06:30N 49°38' W 003°55'612.1
2017-Jul-03 06:00N 49°33' W 004°01'612.2
2017-Jul-03 05:30N 49°29' W 004°08'612.3
2017-Jul-03 05:00N 49°25' W 004°15'612.3
2017-Jul-03 04:29N 49°20' W 004°21'612.3
2017-Jul-03 04:00N 49°16' W 004°28'612.2
2017-Jul-03 03:30N 49°12' W 004°36'612.3
2017-Jul-03 03:00N 49°10' W 004°44'612.4
2017-Jul-03 02:30N 49°06' W 004°52'612.5
2017-Jul-03 02:00N 49°03' W 004°60'612.7
2017-Jul-03 01:30N 48°59' W 005°08'612.8
2017-Jul-03 01:00N 48°56' W 005°16'713.1
2017-Jul-03 00:30N 48°53' W 005°25'713.1
2017-Jul-03 00:00N 48°49' W 005°33'612.7
2017-Jul-02 23:30N 48°45' W 005°41'713.2
2017-Jul-02 23:00N 48°40' W 005°46'713.1
2017-Jul-02 22:30N 48°34' W 005°52'813.5
2017-Jul-02 21:56N 48°28' W 005°58'613.4
2017-Jul-02 21:30N 48°23' W 006°03'713.4
2017-Jul-02 21:00N 48°17' W 006°08'  
Track history (hours):
 
Tides and Currents Weather Stations Pressure Air Temp Water Temp Dewpoint Dewpoint Depression Visibility Wind Speed Wind Dir Waves Ship Positions

Eagle San Antonio

Last reported at 2017-Jul-11 13:08 UTC. Time now 2017-Jul-21 06:24 UTC.
Position N 27°45' W 016°31'.
Warning: this ship's position is 9 days out of date.

Length 274 m; draft 9.2 m.

Type: Tanker. MMSI: 566453000.

Date/timePositionNaut miles runAvg speedWind from/ knotsBaromVisibWave heightAir tempDewpointWater temp
2017-Jul-11 13:08N 27°45' W 016°31'213.4
2017-Jul-11 13:00N 27°46' W 016°30'3613.5
2017-Jul-11 10:21N 28°16' W 016°06'514.3
2017-Jul-11 10:00N 28°19' W 016°02'815.1
2017-Jul-11 09:30N 28°25' W 015°57'816.6
2017-Jul-11 09:00N 28°31' W 015°51'815.5
2017-Jul-11 08:30N 28°37' W 015°45'714.3
2017-Jul-11 08:00N 28°43' W 015°40'613.1
2017-Jul-11 07:30N 28°48' W 015°35'612.8
2017-Jul-11 07:00N 28°54' W 015°33'913.2
2017-Jul-11 06:17N 29°03' W 015°29'413.6
2017-Jul-11 06:00N 29°07' W 015°28'713.5
2017-Jul-11 05:30N 29°13' W 015°26'713.3
2017-Jul-11 05:00N 29°20' W 015°24'612.9
2017-Jul-11 04:30N 29°26' W 015°23'712.9
2017-Jul-11 03:59N 29°32' W 015°21'612.9
2017-Jul-11 03:30N 29°38' W 015°19'713.0
2017-Jul-11 03:00N 29°45' W 015°17'612.9
2017-Jul-11 02:30N 29°51' W 015°15'712.8
2017-Jul-11 02:00N 29°57' W 015°13'712.9
2017-Jul-11 01:28N 30°04' W 015°11'613.2
2017-Jul-11 01:00N 30°10' W 015°09'713.2
2017-Jul-11 00:30N 30°16' W 015°07'713.2
2017-Jul-10 23:57N 30°23' W 015°05'1213.2
2017-Jul-10 23:04N 30°34' W 015°01'  
2017-Jul-07 20:35N 46°23' W 008°06'414.4
2017-Jul-07 20:17N 46°26' W 008°03'514.1
2017-Jul-07 19:57N 46°30' W 007°59'7114.1
2017-Jul-07 14:53N 47°31' W 007°04'4713.0
2017-Jul-07 11:18N 48°11' W 006°28'413.5
2017-Jul-07 11:00N 48°14' W 006°25'713.8
2017-Jul-07 10:28N 48°21' W 006°20'613.9
2017-Jul-07 10:00N 48°26' W 006°16'815.5
2017-Jul-07 09:30N 48°33' W 006°09'814.9
2017-Jul-07 08:59N 48°39' W 006°02'715.2
2017-Jul-07 08:30N 48°45' W 005°56'815.2
2017-Jul-07 08:00N 48°52' W 005°50'714.6
2017-Jul-07 07:30N 48°57' W 005°42'714.5
2017-Jul-07 07:00N 48°59' W 005°31'714.4
2017-Jul-07 06:30N 49°02' W 005°21'714.2
2017-Jul-07 06:00N 49°04' W 005°11'713.8
2017-Jul-07 05:30N 49°07' W 005°01'713.4
2017-Jul-07 05:00N 49°09' W 004°52'713.2
2017-Jul-07 04:30N 49°12' W 004°42'713.2
2017-Jul-07 04:00N 49°14' W 004°33'612.8
2017-Jul-07 03:30N 49°18' W 004°25'713.2
2017-Jul-07 03:00N 49°22' W 004°17'713.3
2017-Jul-07 02:30N 49°27' W 004°10'713.7
2017-Jul-07 02:00N 49°31' W 004°02'714.1
2017-Jul-07 01:30N 49°36' W 003°54'714.6
2017-Jul-07 01:00N 49°41' W 003°46'714.9
2017-Jul-07 00:30N 49°46' W 003°38'815.3
2017-Jul-07 00:00N 49°52' W 003°29'714.8
2017-Jul-06 23:30N 49°54' W 003°18'415.1
2017-Jul-06 23:16N 49°55' W 003°13'301 7.8
2017-Jul-05 08:30N 51°58' E 004°04'0 0.0
2017-Jul-05 08:00N 51°58' E 004°04'0 0.0
2017-Jul-05 07:30N 51°58' E 004°04'0 0.0
2017-Jul-05 07:01N 51°58' E 004°04'0 0.0
2017-Jul-05 06:30N 51°58' E 004°04'0 0.0
2017-Jul-05 05:58N 51°58' E 004°04'0 0.0
2017-Jul-05 05:30N 51°58' E 004°04'0 0.0
2017-Jul-05 05:00N 51°58' E 004°04'0 0.0
2017-Jul-05 04:30N 51°58' E 004°04'0 0.0
2017-Jul-05 04:00N 51°58' E 004°04'0 0.0
2017-Jul-05 03:30N 51°58' E 004°04'0 0.0
2017-Jul-05 02:58N 51°58' E 004°04'0 0.0
2017-Jul-05 02:30N 51°58' E 004°04'0 0.0
2017-Jul-05 02:01N 51°58' E 004°04'0 0.0
2017-Jul-05 01:31N 51°58' E 004°04'0 0.0
2017-Jul-05 01:01N 51°58' E 004°04'0 0.0
2017-Jul-05 00:29N 51°58' E 004°04'0 0.0
2017-Jul-04 23:59N 51°58' E 004°04'0 0.0
2017-Jul-04 23:29N 51°58' E 004°04'0 0.0
2017-Jul-04 23:00N 51°58' E 004°04'0 0.0
2017-Jul-04 22:30N 51°58' E 004°04'0 0.0
2017-Jul-04 22:00N 51°58' E 004°04'0 0.0
2017-Jul-04 21:30N 51°58' E 004°04'0 0.0
2017-Jul-04 21:00N 51°58' E 004°04'0 0.0
2017-Jul-04 20:30N 51°58' E 004°04'0 0.0
2017-Jul-04 20:00N 51°58' E 004°04'0 0.0
2017-Jul-04 19:30N 51°58' E 004°04'0 0.0
2017-Jul-04 19:00N 51°58' E 004°04'0 0.0
2017-Jul-04 18:30N 51°58' E 004°04'0 0.0
2017-Jul-04 18:00N 51°58' E 004°04'0 0.0
2017-Jul-04 17:30N 51°58' E 004°04'0 0.0
2017-Jul-04 17:00N 51°58' E 004°04'0 0.0
2017-Jul-04 16:30N 51°58' E 004°04'0 0.0
2017-Jul-04 16:00N 51°58' E 004°04'0 0.3
2017-Jul-04 15:30N 51°58' E 004°04'1 1.9
2017-Jul-04 15:00N 51°59' E 004°04'1110.8
2017-Jul-04 14:00N 52°01' E 003°47'510.2
2017-Jul-04 13:30N 52°01' E 003°39'612.2
2017-Jul-04 13:00N 51°59' E 003°29'714.8
2017-Jul-04 12:30N 51°56' E 003°18'5 6.8
2017-Jul-04 11:45N 51°54' E 003°11'411.8
2017-Jul-04 11:26N 51°53' E 003°05'511.6
2017-Jul-04 10:59N 51°52' E 002°56'611.8
2017-Jul-04 10:26N 51°50' E 002°47'511.7
2017-Jul-04 09:59N 51°47' E 002°39'612.1
2017-Jul-04 09:30N 51°43' E 002°33'612.1
2017-Jul-04 09:00N 51°38' E 002°27'612.6
2017-Jul-04 08:30N 51°33' E 002°20'612.6
2017-Jul-04 08:00N 51°28' E 002°14'612.0
2017-Jul-04 07:30N 51°23' E 002°11'612.3
2017-Jul-04 07:00N 51°17' E 002°07'612.0
2017-Jul-04 06:30N 51°13' E 002°00'612.3
2017-Jul-04 06:00N 51°10' E 001°52'1212.0
2017-Jul-04 05:00N 51°02' E 001°37'611.8
2017-Jul-04 04:30N 50°58' E 001°30'611.3
2017-Jul-04 04:00N 50°53' E 001°25'611.7
2017-Jul-04 03:30N 50°48' E 001°23'611.7
2017-Jul-04 03:00N 50°42' E 001°21'711.7
2017-Jul-04 02:25N 50°37' E 001°13'2811.6
2017-Jul-03 23:59N 50°25' E 000°33'911.9
2017-Jul-03 23:14N 50°22' E 000°19'711.7
2017-Jul-03 22:39N 50°21' E 000°09'211.8
2017-Jul-03 22:30N 50°20' E 000°07'611.7
2017-Jul-03 22:00N 50°19' W 000°03'611.8
2017-Jul-03 21:30N 50°17' W 000°11'611.8
2017-Jul-03 21:00N 50°16' W 000°20'611.6
2017-Jul-03 20:30N 50°15' W 000°29'611.4
2017-Jul-03 20:00N 50°13' W 000°38'1111.2
2017-Jul-03 19:03N 50°12' W 000°54'110.9
2017-Jul-03 19:00N 50°12' W 000°55'611.4
2017-Jul-03 18:30N 50°12' W 001°04'612.0
2017-Jul-03 18:01N 50°11' W 001°13'612.7
2017-Jul-03 17:31N 50°11' W 001°23'612.9
2017-Jul-03 17:00N 50°12' W 001°33'713.3
2017-Jul-03 16:30N 50°13' W 001°44'714.2
2017-Jul-03 16:00N 50°15' W 001°54'2814.1
2017-Jul-03 14:00N 50°20' W 002°38'713.2
2017-Jul-03 13:30N 50°21' W 002°48'612.9
2017-Jul-03 13:00N 50°22' W 002°58'713.0
2017-Jul-03 12:30N 50°23' W 003°08'612.9
2017-Jul-03 12:00N 50°24' W 003°18'4 8.9
2017-Jul-03 11:30N 50°25' W 003°25'3 5.4
2017-Jul-03 11:00N 50°23' W 003°23'510.4
2017-Jul-03 10:30N 50°18' W 003°20'612.4
2017-Jul-03 10:00N 50°11' W 003°20'612.3
2017-Jul-03 09:30N 50°05' W 003°20'611.8
2017-Jul-03 09:00N 49°59' W 003°21'612.3
2017-Jul-03 08:30N 49°55' W 003°28'612.8
2017-Jul-03 08:00N 49°51' W 003°35'612.4
2017-Jul-03 07:30N 49°46' W 003°42'612.3
2017-Jul-03 07:00N 49°42' W 003°49'612.2
2017-Jul-03 06:30N 49°38' W 003°55'612.1
2017-Jul-03 06:00N 49°33' W 004°01'612.2
2017-Jul-03 05:30N 49°29' W 004°08'612.3
2017-Jul-03 05:00N 49°25' W 004°15'612.3
2017-Jul-03 04:29N 49°20' W 004°21'612.3
2017-Jul-03 04:00N 49°16' W 004°28'612.2
2017-Jul-03 03:30N 49°12' W 004°36'612.3
2017-Jul-03 03:00N 49°10' W 004°44'612.4
2017-Jul-03 02:30N 49°06' W 004°52'612.5
2017-Jul-03 02:00N 49°03' W 004°60'612.7
2017-Jul-03 01:30N 48°59' W 005°08'612.8
2017-Jul-03 01:00N 48°56' W 005°16'713.1
2017-Jul-03 00:30N 48°53' W 005°25'713.1
2017-Jul-03 00:00N 48°49' W 005°33'612.7
2017-Jul-02 23:30N 48°45' W 005°41'713.2
2017-Jul-02 23:00N 48°40' W 005°46'713.1
2017-Jul-02 22:30N 48°34' W 005°52'813.5
2017-Jul-02 21:56N 48°28' W 005°58'613.4
2017-Jul-02 21:30N 48°23' W 006°03'713.4
2017-Jul-02 21:00N 48°17' W 006°08'  

Dump ship's entire track history